Time;durP1;ratioP1;P1;durP2;ratioP2;P2;SDS_P1;SDS_P2;PMS_P1;PMS_P2;Temp;Humidity;BMP_temperature;BMP_pressure;BME280_temperature;BME280_humidity;BME280_pressure;Samples;Min_cycle;Max_cycle;Signal;HPM_P1;HPM_P2
2023/10/26 00:00:09;;;;;;;9.15;1.73;;;;;;;17.18;74.03;96424.22;4487861;31;20423;-80
2023/10/26 00:02:36;;;;;;;5.12;1.60;;;;;;;17.35;73.55;96423.44;4487907;31;20096;-80
2023/10/26 00:05:04;;;;;;;6.65;1.80;;;;;;;17.42;73.29;96427.09;4487520;31;20115;-80
2023/10/26 00:07:31;;;;;;;6.30;1.52;;;;;;;17.57;72.17;96430.84;4487904;32;20099;-80
2023/10/26 00:09:58;;;;;;;7.15;2.12;;;;;;;17.84;71.23;96431.75;4487897;31;20112;-80
2023/10/26 00:12:25;;;;;;;9.77;2.42;;;;;;;17.34;73.47;96435.66;4488002;32;20123;-81
2023/10/26 00:14:52;;;;;;;5.45;1.40;;;;;;;16.96;75.96;96422.84;4488293;32;20099;-81
2023/10/26 00:17:19;;;;;;;8.40;1.83;;;;;;;17.23;74.97;96430.66;4488183;31;20072;-80
2023/10/26 00:19:46;;;;;;;7.20;2.33;;;;;;;17.02;76.54;96420.47;4488142;31;20109;-80
2023/10/26 00:22:13;;;;;;;11.07;2.10;;;;;;;16.90;77.33;96412.97;4488668;32;20110;-80
2023/10/26 00:24:40;;;;;;;6.07;2.10;;;;;;;16.89;77.78;96426.97;4491051;31;20480;-81
2023/10/26 00:27:07;;;;;;;4.78;1.77;;;;;;;16.74;79.39;96424.84;4489011;31;20156;-80
2023/10/26 00:29:34;;;;;;;8.60;1.67;;;;;;;16.49;81.52;96425.44;4489133;31;20576;-80
2023/10/26 00:32:03;;;;;;;6.00;1.45;;;;;;;16.45;81.61;96419.69;4489725;31;20498;-80
2023/10/26 00:34:30;;;;;;;4.53;1.55;;;;;;;16.11;83.58;96419.34;4488595;32;20446;-80
2023/10/26 00:36:57;;;;;;;5.07;1.83;;;;;;;16.02;85.00;96420.19;4488380;31;20103;-80
2023/10/26 00:39:24;;;;;;;7.87;1.62;;;;;;;16.35;82.90;96411.09;4487701;31;20155;-80
2023/10/26 00:41:52;;;;;;;5.68;1.65;;;;;;;16.33;82.37;96409.59;4487043;32;20116;-80
2023/10/26 00:44:21;;;;;;;8.38;2.05;;;;;;;16.29;82.15;96411.66;4487733;32;20171;-80
2023/10/26 00:46:49;;;;;;;9.98;1.80;;;;;;;16.13;83.36;96412.22;4488351;31;20080;-80
2023/10/26 00:49:17;;;;;;;6.12;1.60;;;;;;;16.39;81.53;96407.25;4487284;31;20427;-81
2023/10/26 00:51:52;;;;;;;5.12;1.70;;;;;;;16.32;81.33;96403.56;4487631;32;20452;-80
2023/10/26 00:54:20;;;;;;;8.60;1.75;;;;;;;16.27;81.45;96416.19;4489778;32;20227;-80
2023/10/26 00:56:48;;;;;;;7.22;1.80;;;;;;;16.10;83.75;96420.31;4488515;32;20136;-80
2023/10/26 00:59:15;;;;;;;7.40;1.65;;;;;;;16.17;83.53;96418.00;4488714;31;20101;-80
2023/10/26 01:01:45;;;;;;;9.98;1.75;;;;;;;16.31;83.08;96422.75;4488654;32;20132;-80
2023/10/26 01:04:15;;;;;;;5.20;1.80;;;;;;;16.31;83.54;96429.72;4488995;31;20098;-80
2023/10/26 01:06:43;;;;;;;4.30;1.60;;;;;;;16.44;82.39;96431.06;4488114;32;20107;-80
2023/10/26 01:09:10;;;;;;;4.78;1.48;;;;;;;16.58;80.74;96424.56;4486241;31;20096;-80
2023/10/26 01:11:38;;;;;;;6.95;1.80;;;;;;;16.76;79.12;96428.13;4487390;31;20582;-80
2023/10/26 01:14:06;;;;;;;7.28;1.75;;;;;;;16.60;79.51;96425.28;4486081;32;20426;-80
2023/10/26 01:16:35;;;;;;;4.90;1.73;;;;;;;16.82;77.61;96418.94;4485823;32;20105;-80
2023/10/26 01:19:03;;;;;;;7.47;2.00;;;;;;;17.25;74.47;96418.28;4487222;31;20132;-80
2023/10/26 01:21:31;;;;;;;8.35;1.75;;;;;;;17.14;74.15;96415.88;4485764;32;20481;-80
2023/10/26 01:23:58;;;;;;;7.55;1.80;;;;;;;17.27;73.57;96420.75;4487403;31;20382;-80
2023/10/26 01:26:25;;;;;;;4.57;1.60;;;;;;;16.92;75.03;96411.06;4486963;31;20114;-80
2023/10/26 01:28:52;;;;;;;6.22;1.92;;;;;;;16.83;75.02;96412.75;4486650;31;20130;-80
2023/10/26 01:31:19;;;;;;;7.15;1.85;;;;;;;16.97;74.91;96403.63;4487062;31;20525;-80
2023/10/26 01:33:46;;;;;;;6.62;1.80;;;;;;;16.58;77.59;96414.16;4487026;32;20430;-80
2023/10/26 01:36:13;;;;;;;11.27;1.98;;;;;;;16.75;77.10;96405.66;4486476;32;20525;-80
2023/10/26 01:38:40;;;;;;;9.48;2.00;;;;;;;16.33;79.30;96405.19;4487154;31;20156;-80
2023/10/26 01:41:07;;;;;;;5.65;1.70;;;;;;;16.62;77.62;96399.91;4486613;32;20385;-80
2023/10/26 01:43:33;;;;;;;5.87;1.85;;;;;;;16.13;80.28;96404.41;4486645;31;20167;-80
2023/10/26 01:46:00;;;;;;;7.40;1.80;;;;;;;15.96;82.69;96397.34;4486824;31;20124;-80
2023/10/26 01:48:27;;;;;;;4.25;1.58;;;;;;;16.32;80.51;96398.34;4487022;32;20100;-80
2023/10/26 01:50:54;;;;;;;10.23;2.05;;;;;;;15.76;84.62;96387.91;4486477;31;20099;-80
2023/10/26 01:53:23;;;;;;;5.15;1.60;;;;;;;16.24;81.96;96390.44;4486749;31;20104;-80
2023/10/26 01:55:50;;;;;;;6.40;1.85;;;;;;;16.37;80.76;96390.13;4486700;31;20085;-80
2023/10/26 01:58:17;;;;;;;5.28;2.28;;;;;;;16.00;83.36;96392.69;4486393;31;20161;-80
2023/10/26 02:00:44;;;;;;;9.55;2.00;;;;;;;15.98;83.80;96390.22;4486768;32;20474;-80
2023/10/26 02:03:11;;;;;;;8.50;2.08;;;;;;;15.96;83.58;96399.12;4486798;31;20084;-80
2023/10/26 02:05:38;;;;;;;6.10;1.65;;;;;;;16.36;81.27;96404.91;4486234;31;20124;-80
2023/10/26 02:08:05;;;;;;;7.50;2.05;;;;;;;16.17;82.28;96400.59;4485823;32;20471;-80
2023/10/26 02:10:33;;;;;;;7.45;1.73;;;;;;;16.31;81.91;96401.09;4486214;31;20111;-80
2023/10/26 02:13:00;;;;;;;5.65;1.80;;;;;;;16.47;80.08;96399.53;4486455;32;20159;-80
2023/10/26 02:15:27;;;;;;;9.35;1.75;;;;;;;16.73;78.41;96398.94;4486319;31;20096;-80
2023/10/26 02:17:54;;;;;;;8.30;2.03;;;;;;;16.74;78.50;96400.59;4486036;32;20107;-80
2023/10/26 02:20:21;;;;;;;7.70;2.12;;;;;;;16.31;79.37;96408.91;4486359;31;20115;-80
2023/10/26 02:22:48;;;;;;;5.75;1.70;;;;;;;16.54;78.88;96410.22;4486393;31;20163;-80
2023/10/26 02:25:16;;;;;;;5.28;1.73;;;;;;;16.75;77.29;96397.00;4485929;32;20388;-80
2023/10/26 02:27:43;;;;;;;7.10;1.83;;;;;;;16.71;78.13;96396.50;4486023;31;20109;-80
2023/10/26 02:30:10;;;;;;;6.72;1.80;;;;;;;16.65;78.70;96402.22;4485048;32;20100;-80
2023/10/26 02:32:38;;;;;;;8.23;2.10;;;;;;;16.27;81.77;96397.13;4485866;31;20096;-80
2023/10/26 02:35:05;;;;;;;5.25;1.75;;;;;;;16.46;80.67;96397.06;4486200;31;20092;-80
2023/10/26 02:37:38;;;;;;;8.80;1.92;;;;;;;16.46;80.74;96397.06;4486074;31;20119;-80
2023/10/26 02:40:06;;;;;;;8.60;1.90;;;;;;;16.27;80.83;96389.31;4485755;31;20118;-80
2023/10/26 02:42:33;;;;;;;5.97;1.90;;;;;;;16.24;81.98;96392.22;4486114;32;20092;-80
2023/10/26 02:45:00;;;;;;;7.60;2.10;;;;;;;16.00;83.77;96395.28;4486044;32;20085;-80
2023/10/26 02:47:27;;;;;;;7.90;2.20;;;;;;;15.91;84.40;96389.13;4485578;31;20149;-80
2023/10/26 02:49:54;;;;;;;5.28;1.95;;;;;;;16.25;81.89;96389.47;4485911;32;20088;-80
2023/10/26 02:52:21;;;;;;;8.85;1.98;;;;;;;15.87;83.65;96396.37;4486885;32;20098;-80
2023/10/26 02:54:49;;;;;;;6.32;1.98;;;;;;;15.84;83.75;96390.63;4487899;31;20144;-80
2023/10/26 02:57:16;;;;;;;7.53;1.80;;;;;;;16.15;82.74;96396.47;4488397;31;20116;-80
2023/10/26 02:59:43;;;;;;;6.75;1.75;;;;;;;15.83;84.03;96405.41;4487994;31;20110;-80
2023/10/26 03:02:10;;;;;;;7.32;2.22;;;;;;;16.05;83.93;96409.50;4488388;32;20155;-80
2023/10/26 03:04:42;;;;;;;5.87;1.80;;;;;;;16.56;79.57;96410.87;4488229;32;20105;-80
2023/10/26 03:07:11;;;;;;;5.55;2.08;;;;;;;16.22;81.22;96415.78;4488034;31;20153;-80
2023/10/26 03:09:38;;;;;;;5.78;1.87;;;;;;;16.35;80.47;96408.47;4488160;31;20092;-80
2023/10/26 03:12:05;;;;;;;5.15;1.83;;;;;;;16.16;81.91;96416.31;4488304;31;20097;-81
2023/10/26 03:14:32;;;;;;;4.70;2.10;;;;;;;15.94;83.48;96414.84;4487767;31;20093;-80
2023/10/26 03:16:59;;;;;;;4.87;1.70;;;;;;;16.20;81.40;96420.31;4488238;31;20100;-80
2023/10/26 03:19:26;;;;;;;8.10;2.00;;;;;;;15.86;83.19;96415.56;4488137;31;20115;-80
2023/10/26 03:21:53;;;;;;;4.25;1.65;;;;;;;16.15;82.46;96425.91;4487828;31;20487;-80
2023/10/26 03:24:20;;;;;;;7.87;1.85;;;;;;;16.23;81.52;96429.59;4488857;31;20077;-81
2023/10/26 03:26:47;;;;;;;4.15;1.70;;;;;;;16.45;79.71;96434.50;4488523;31;20110;-80
2023/10/26 03:29:14;;;;;;;7.60;1.98;;;;;;;16.65;79.08;96443.88;4487777;31;20152;-80
2023/10/26 03:31:41;;;;;;;7.68;1.90;;;;;;;16.54;79.46;96443.25;4488087;32;20107;-80
2023/10/26 03:34:08;;;;;;;8.02;2.08;;;;;;;16.69;78.74;96445.28;4488098;31;20080;-80
2023/10/26 03:36:35;;;;;;;4.85;1.70;;;;;;;16.79;77.97;96447.84;4487619;32;20163;-80
2023/10/26 03:39:02;;;;;;;5.22;1.90;;;;;;;16.82;77.54;96447.56;4488060;31;20099;-80
2023/10/26 03:41:29;;;;;;;6.47;1.85;;;;;;;16.85;77.68;96441.25;4488069;31;20085;-80
2023/10/26 03:43:56;;;;;;;6.53;2.00;;;;;;;17.17;75.51;96453.84;4487745;32;20088;-80
2023/10/26 03:46:23;;;;;;;5.68;1.67;;;;;;;16.80;77.09;96459.94;4487958;31;20115;-80
2023/10/26 03:48:51;;;;;;;5.68;1.80;;;;;;;16.45;79.50;96447.50;4487686;31;20170;-80
2023/10/26 03:51:18;;;;;;;6.03;1.87;;;;;;;16.67;78.02;96452.38;4487867;31;20494;-80
2023/10/26 03:53:45;;;;;;;5.30;1.60;;;;;;;16.70;76.98;96453.94;4487967;31;20137;-80
2023/10/26 03:56:12;;;;;;;6.47;1.80;;;;;;;16.98;75.69;96455.59;4487462;31;20089;-80
2023/10/26 03:58:39;;;;;;;6.10;2.55;;;;;;;17.25;74.27;96462.59;4487859;32;20171;-80
2023/10/26 04:01:06;;;;;;;8.43;2.92;;;;;;;17.19;73.95;96467.56;4487718;31;20183;-80
2023/10/26 04:03:33;;;;;;;4.53;1.70;;;;;;;17.25;73.81;96475.62;4486349;32;20092;-80
2023/10/26 04:06:00;;;;;;;4.75;1.60;;;;;;;17.57;71.34;96476.97;4487715;31;20089;-80
2023/10/26 04:08:27;;;;;;;6.00;1.80;;;;;;;17.68;69.88;96478.53;4487790;31;20104;-80
2023/10/26 04:10:54;;;;;;;5.22;2.10;;;;;;;16.92;72.85;96489.22;4487370;31;20147;-80
2023/10/26 04:13:21;;;;;;;4.35;1.85;;;;;;;16.97;72.82;96493.03;4487824;31;20080;-80
2023/10/26 04:15:50;;;;;;;9.05;2.08;;;;;;;17.81;68.95;96487.66;4487686;31;20155;-80
2023/10/26 04:18:17;;;;;;;10.18;2.22;;;;;;;17.49;69.29;96487.31;4487349;31;20332;-80
2023/10/26 04:20:44;;;;;;;6.90;1.70;;;;;;;17.29;70.01;96482.19;4487678;31;20492;-80
2023/10/26 04:23:11;;;;;;;6.32;1.77;;;;;;;17.76;68.31;96486.50;4487698;31;20151;-80
2023/10/26 04:25:38;;;;;;;4.30;1.58;;;;;;;17.48;68.90;96491.69;4487249;31;20118;-80
2023/10/26 04:28:20;;;;;;;4.12;1.37;;;;;;;17.75;67.67;96497.88;4487422;31;20092;-80
2023/10/26 04:30:47;;;;;;;3.58;1.40;;;;;;;17.53;69.33;96494.66;4487318;31;20103;-80
2023/10/26 04:33:17;;;;;;;4.68;1.50;;;;;;;17.51;70.27;96499.22;4487649;31;20092;-80
2023/10/26 04:35:46;;;;;;;4.47;1.50;;;;;;;17.45;70.87;96501.59;4487587;31;20093;-80
2023/10/26 04:38:13;;;;;;;5.78;1.55;;;;;;;17.35;71.59;96506.88;4487402;32;20104;-80
2023/10/26 04:40:41;;;;;;;4.18;1.50;;;;;;;17.01;72.98;96510.03;4487525;31;20088;-80
2023/10/26 04:43:11;;;;;;;3.97;1.60;;;;;;;16.87;74.37;96507.88;4487458;32;20168;-80
2023/10/26 04:45:39;;;;;;;5.35;1.50;;;;;;;16.45;76.44;96495.19;4485899;32;20154;-80
2023/10/26 04:48:06;;;;;;;5.68;1.58;;;;;;;16.66;76.75;96502.00;4487665;32;20487;-80
2023/10/26 04:50:33;;;;;;;4.45;1.48;;;;;;;16.98;75.03;96506.88;4486314;31;20428;-80
2023/10/26 04:53:02;;;;;;;5.55;1.77;;;;;;;16.95;74.97;96504.56;4487174;31;20073;-80
2023/10/26 04:55:35;;;;;;;5.35;1.55;;;;;;;17.22;74.51;96515.00;4487247;31;20115;-80
2023/10/26 04:58:03;;;;;;;4.50;1.85;;;;;;;17.57;72.90;96509.09;4487537;31;20528;-80
2023/10/26 05:00:32;;;;;;;6.62;1.60;;;;;;;17.68;71.79;96502.84;4487022;32;20481;-80
2023/10/26 05:02:59;;;;;;;7.87;2.15;;;;;;;18.04;69.91;96506.31;4486270;32;20165;-80
2023/10/26 05:05:26;;;;;;;6.05;1.67;;;;;;;18.06;69.54;96506.16;4486071;32;20454;-80
2023/10/26 05:07:53;;;;;;;3.78;1.20;;;;;;;17.79;70.44;96507.06;4487229;31;20115;-80
2023/10/26 05:10:20;;;;;;;7.22;1.73;;;;;;;17.55;71.82;96503.19;4487289;31;20148;-80
2023/10/26 05:12:47;;;;;;;4.97;1.75;;;;;;;17.39;73.00;96510.81;4486984;31;20174;-80
2023/10/26 05:15:14;;;;;;;5.50;1.50;;;;;;;17.33;73.50;96511.38;4486657;31;20104;-80
2023/10/26 05:17:41;;;;;;;5.28;1.58;;;;;;;17.58;71.97;96507.28;4487183;31;20616;-80
2023/10/26 05:20:09;;;;;;;7.57;1.70;;;;;;;16.99;74.28;96516.31;4489147;31;20145;-80
2023/10/26 05:22:36;;;;;;;6.05;1.45;;;;;;;17.53;72.13;96504.28;4487401;32;20107;-80
2023/10/26 05:25:04;;;;;;;4.75;1.50;;;;;;;17.73;70.72;96505.84;4488268;31;20119;-80
2023/10/26 05:27:32;;;;;;;4.28;1.60;;;;;;;17.62;70.67;96504.22;4487880;31;20088;-81
2023/10/26 05:30:03;;;;;;;5.75;1.87;;;;;;;17.03;72.84;96508.09;4487764;31;20102;-80
2023/10/26 05:32:30;;;;;;;6.68;1.73;;;;;;;17.60;71.18;96511.38;4487427;31;20147;-80
2023/10/26 05:34:57;;;;;;;7.90;1.90;;;;;;;17.81;68.96;96510.34;4486854;32;20122;-80
2023/10/26 05:37:24;;;;;;;4.60;1.42;;;;;;;17.63;69.28;96505.88;4487245;31;20123;-80
2023/10/26 05:39:51;;;;;;;6.53;2.05;;;;;;;17.63;68.97;96510.25;4486978;32;20441;-80
2023/10/26 05:42:18;;;;;;;6.32;1.62;;;;;;;17.86;67.45;96515.91;4486687;31;20133;-80
2023/10/26 05:44:45;;;;;;;6.50;2.40;;;;;;;18.22;65.68;96514.16;4486827;31;20396;-81
2023/10/26 05:47:12;;;;;;;4.95;1.73;;;;;;;17.95;66.95;96516.81;4486982;32;20159;-80
2023/10/26 05:49:39;;;;;;;6.55;1.70;;;;;;;18.14;66.12;96517.50;4485592;31;20092;-78
2023/10/26 05:52:06;;;;;;;5.68;1.80;;;;;;;18.06;65.92;96532.25;4486851;31;20081;-79
2023/10/26 05:54:33;;;;;;;6.18;1.80;;;;;;;18.17;65.27;96527.63;4486634;31;20116;-79
2023/10/26 05:57:00;;;;;;;4.00;1.70;;;;;;;18.32;65.09;96532.34;4486322;31;20461;-79
2023/10/26 05:59:27;;;;;;;4.72;1.60;;;;;;;17.97;65.87;96534.00;4485658;31;20130;-79
2023/10/26 06:01:54;;;;;;;4.85;1.52;;;;;;;18.09;65.02;96532.81;4486251;31;20109;-78
2023/10/26 06:04:21;;;;;;;6.05;1.58;;;;;;;18.22;65.54;96540.25;4487640;31;20157;-80
2023/10/26 06:06:48;;;;;;;5.68;1.70;;;;;;;18.01;65.90;96539.72;4488048;32;20175;-78
2023/10/26 06:09:15;;;;;;;5.30;1.62;;;;;;;17.97;65.73;96559.25;4486867;31;20088;-79
2023/10/26 06:11:42;;;;;;;7.00;2.30;;;;;;;18.28;64.77;96552.69;4486942;31;20157;-77
2023/10/26 06:14:09;;;;;;;6.55;1.90;;;;;;;17.42;68.16;96565.28;4486460;31;20114;-77
2023/10/26 06:16:37;;;;;;;7.20;1.60;;;;;;;16.92;70.83;96570.81;4485876;32;20130;-77
2023/10/26 06:19:04;;;;;;;4.18;1.77;;;;;;;17.21;70.34;96575.09;4486300;31;20102;-77
2023/10/26 06:21:32;;;;;;;7.03;1.90;;;;;;;17.09;71.54;96578.84;4486309;32;20073;-78
2023/10/26 06:23:59;;;;;;;5.05;2.00;;;;;;;16.98;72.60;96577.22;4485912;32;20093;-78
2023/10/26 06:26:26;;;;;;;6.03;1.75;;;;;;;17.15;71.77;96579.09;4485964;31;20171;-77
2023/10/26 06:28:53;;;;;;;5.65;1.92;;;;;;;16.77;73.69;96582.59;4488184;31;20098;-77
2023/10/26 06:31:20;;;;;;;3.83;1.67;;;;;;;16.92;73.60;96589.03;4488061;31;20132;-77
2023/10/26 06:33:47;;;;;;;5.97;1.80;;;;;;;17.12;73.02;96592.44;4488479;31;20104;-77
2023/10/26 06:36:15;;;;;;;6.95;1.70;;;;;;;17.13;72.79;96601.87;4488218;31;20121;-77
2023/10/26 06:38:42;;;;;;;4.40;1.60;;;;;;;17.02;73.12;96596.84;4488212;31;20438;-76
2023/10/26 06:41:09;;;;;;;4.32;2.05;;;;;;;16.82;72.55;96595.22;4488314;31;20106;-81
2023/10/26 06:43:37;;;;;;;3.03;1.40;;;;;;;16.94;71.43;96584.50;4488322;31;20152;-80
2023/10/26 06:46:04;;;;;;;4.75;1.52;;;;;;;17.54;68.67;96582.38;4487887;31;20163;-76
2023/10/26 06:48:31;;;;;;;6.00;1.80;;;;;;;17.78;67.53;96573.25;4489310;31;20156;-77
2023/10/26 06:51:03;;;;;;;4.57;1.60;;;;;;;18.02;67.27;96573.50;4487185;31;20076;-76
2023/10/26 06:53:31;;;;;;;5.25;2.00;;;;;;;17.68;68.33;96573.25;4488312;31;20092;-76
2023/10/26 06:55:58;;;;;;;5.47;1.42;;;;;;;18.30;65.99;96571.66;4487869;31;20145;-77
2023/10/26 06:58:25;;;;;;;4.45;1.55;;;;;;;18.34;65.99;96565.16;4487935;31;20076;-76
2023/10/26 07:00:52;;;;;;;4.47;1.30;;;;;;;18.88;63.92;96571.16;4486841;31;20525;-76
2023/10/26 07:03:20;;;;;;;4.43;1.45;;;;;;;19.35;62.22;96568.19;4488128;31;20386;-76
2023/10/26 07:05:48;;;;;;;5.07;1.42;;;;;;;19.45;61.96;96581.97;4487675;31;20114;-76
2023/10/26 07:08:16;;;;;;;5.10;1.62;;;;;;;19.57;60.86;96579.94;4488252;31;20083;-77
2023/10/26 07:10:43;;;;;;;3.50;1.40;;;;;;;19.73;59.88;96582.62;4488057;31;20433;-77
2023/10/26 07:13:10;;;;;;;5.72;1.30;;;;;;;19.56;60.03;96583.50;4487922;31;20152;-77
2023/10/26 07:15:37;;;;;;;3.55;1.42;;;;;;;19.74;58.54;96588.66;4487876;31;20153;-76
2023/10/26 07:18:04;;;;;;;4.18;1.50;;;;;;;21.11;52.66;96584.59;4488120;31;20709;-76
2023/10/26 07:20:32;;;;;;;4.50;1.50;;;;;;;20.56;54.08;96582.66;4487711;31;20103;-76
2023/10/26 07:22:59;;;;;;;6.12;1.52;;;;;;;21.37;53.34;96595.72;4488121;31;20128;-76
2023/10/26 07:25:27;;;;;;;2.92;1.37;;;;;;;21.89;52.11;96595.19;4487960;31;20104;-76
2023/10/26 07:27:54;;;;;;;2.70;1.25;;;;;;;21.50;52.70;96597.81;4487574;31;20088;-77
2023/10/26 07:30:21;;;;;;;3.37;1.50;;;;;;;21.26;53.51;96597.88;4487946;31;20069;-76
2023/10/26 07:32:47;;;;;;;3.97;1.42;;;;;;;21.18;53.69;96606.56;4488022;31;20495;-76
2023/10/26 07:35:15;;;;;;;4.80;1.40;;;;;;;20.58;57.13;96611.31;4487745;31;20104;-76
2023/10/26 07:37:42;;;;;;;5.07;1.33;;;;;;;20.26;56.14;96606.81;4487814;31;20087;-77
2023/10/26 07:40:32;;;;;;;4.55;1.40;;;;;;;20.61;53.56;96614.41;4488046;31;20148;-76
2023/10/26 07:42:59;;;;;;;2.70;1.20;;;;;;;21.27;52.27;96617.87;4487998;31;20442;-76
2023/10/26 07:45:26;;;;;;;1.92;1.10;;;;;;;21.47;49.67;96616.50;4487790;32;20172;-76
2023/10/26 07:47:55;;;;;;;0.95;0.85;;;;;;;21.76;49.45;96609.87;4488107;31;20088;-76
2023/10/26 07:50:28;;;;;;;2.83;1.30;;;;;;;21.46;49.96;96616.69;4488020;31;20088;-76
2023/10/26 07:52:56;;;;;;;3.95;1.10;;;;;;;21.53;50.02;96615.84;4487968;32;20426;-76
2023/10/26 07:55:23;;;;;;;2.55;1.23;;;;;;;21.81;50.43;96610.19;4487620;31;20592;-77
2023/10/26 07:57:50;;;;;;;4.47;1.23;;;;;;;21.82;49.82;96606.56;4488118;31;20084;-76
2023/10/26 08:00:17;;;;;;;1.67;1.10;;;;;;;21.94;50.30;96602.56;4488038;31;20175;-77
2023/10/26 08:02:44;;;;;;;2.87;1.08;;;;;;;22.19;48.63;96601.47;4487779;31;20093;-77
2023/10/26 08:05:15;;;;;;;2.60;1.25;;;;;;;22.52;48.60;96606.53;4487881;31;20088;-77
2023/10/26 08:07:42;;;;;;;2.12;1.10;;;;;;;22.67;47.53;96602.16;4487840;31;20443;-76
2023/10/26 08:10:09;;;;;;;2.78;1.10;;;;;;;22.26;47.43;96604.25;4489035;32;20080;-76
2023/10/26 08:12:36;;;;;;;2.65;1.02;;;;;;;22.08;47.14;96606.31;4487687;31;20104;-77
2023/10/26 08:15:04;;;;;;;3.08;1.60;;;;;;;22.24;47.41;96595.72;4486432;32;20108;-77
2023/10/26 08:17:51;;;;;;;3.85;1.40;;;;;;;22.37;47.66;96595.97;4489484;31;20155;-77
2023/10/26 08:20:19;;;;;;;2.85;1.37;;;;;;;22.90;48.04;96603.97;4486295;31;20072;-76
2023/10/26 08:22:46;;;;;;;3.65;1.05;;;;;;;22.60;47.40;96603.84;4487316;31;20085;-76
2023/10/26 08:25:13;;;;;;;1.45;1.05;;;;;;;22.13;47.12;96607.44;4486420;32;20507;-77
2023/10/26 08:27:47;;;;;;;3.10;1.10;;;;;;;21.88;46.29;96616.37;4487464;31;20080;-77
2023/10/26 08:30:15;;;;;;;2.28;1.00;;;;;;;22.13;45.21;96623.19;4487397;31;20490;-76
2023/10/26 08:32:41;;;;;;;1.98;1.12;;;;;;;22.73;43.39;96625.09;4487727;31;20105;-77
2023/10/26 08:35:09;;;;;;;5.40;1.20;;;;;;;22.78;43.70;96628.03;4486359;32;20104;-77
2023/10/26 08:37:36;;;;;;;5.03;2.20;;;;;;;22.35;46.89;96620.78;4487485;31;20102;-76
2023/10/26 08:40:04;;;;;;;4.03;1.40;;;;;;;22.67;45.80;96622.38;4487586;31;20068;-77
2023/10/26 08:42:31;;;;;;;2.50;1.33;;;;;;;23.04;46.10;96619.78;4487465;31;20116;-77
2023/10/26 08:44:59;;;;;;;3.00;1.37;;;;;;;23.38;46.00;96621.91;4487165;32;20133;-77
2023/10/26 08:47:27;;;;;;;4.40;1.10;;;;;;;23.05;45.15;96620.59;4487518;32;20131;-76
2023/10/26 08:49:57;;;;;;;3.00;1.30;;;;;;;22.67;47.29;96610.03;4486250;31;20457;-76
2023/10/26 08:52:41;;;;;;;3.15;1.27;;;;;;;22.79;46.49;96618.34;4487454;31;20112;-77
2023/10/26 08:55:09;;;;;;;4.30;1.40;;;;;;;22.88;45.64;96609.41;4487355;31;20107;-77
2023/10/26 08:57:51;;;;;;;2.65;1.40;;;;;;;22.46;46.13;96599.34;4487075;31;20080;-76
2023/10/26 09:00:18;;;;;;;5.07;1.70;;;;;;;22.88;46.32;96608.59;4487270;31;20434;-76
2023/10/26 09:02:48;;;;;;;4.12;1.48;;;;;;;22.73;48.45;96605.88;4487344;32;20130;-76
2023/10/26 09:05:15;;;;;;;4.43;1.52;;;;;;;22.69;48.21;96608.06;4486893;31;20212;-76
2023/10/26 09:07:42;;;;;;;4.18;1.80;;;;;;;22.42;47.46;96600.69;4487362;31;20103;-76
2023/10/26 09:10:10;;;;;;;4.70;1.70;;;;;;;22.60;47.26;96590.69;4485835;31;20088;-77
2023/10/26 09:12:37;;;;;;;4.20;1.77;;;;;;;22.49;48.03;96601.63;4486613;31;20427;-77
2023/10/26 09:15:06;;;;;;;5.40;1.23;;;;;;;22.38;48.09;96599.41;4486728;31;20119;-78
2023/10/26 09:17:33;;;;;;;3.60;1.27;;;;;;;23.11;45.53;96605.94;4486589;31;20254;-78
2023/10/26 09:20:22;;;;;;;2.42;1.23;;;;;;;22.98;45.58;96606.53;4486716;31;20084;-78
2023/10/26 09:22:50;;;;;;;2.53;1.27;;;;;;;22.82;45.77;96620.59;4487224;31;20112;-77
2023/10/26 09:25:17;;;;;;;2.12;1.10;;;;;;;22.65;47.00;96617.28;4485819;32;20101;-78
2023/10/26 09:27:48;;;;;;;2.37;1.00;;;;;;;22.43;48.05;96620.72;4486619;32;20118;-77
2023/10/26 09:30:24;;;;;;;2.97;1.10;;;;;;;21.81;46.87;96623.31;4487929;31;20079;-84
2023/10/26 09:32:51;;;;;;;4.47;1.40;;;;;;;22.07;48.18;96620.44;4499221;31;20065;-84
2023/10/26 09:35:26;;;;;;;2.90;1.02;;;;;;;22.61;46.10;96610.72;4557245;26;20109;-82
2023/10/26 09:37:53;;;;;;;2.12;1.00;;;;;;;22.23;46.30;96602.78;4464918;32;20124;-84
2023/10/26 09:40:21;;;;;;;6.43;1.58;;;;;;;22.73;46.11;96600.63;4459976;32;20094;-84
2023/10/26 09:42:49;;;;;;;2.67;1.00;;;;;;;22.63;45.83;96614.00;4462372;32;20126;-82
2023/10/26 09:45:19;;;;;;;3.95;1.42;;;;;;;23.54;43.75;96606.97;4457051;32;20125;-81
2023/10/26 09:47:46;;;;;;;3.58;1.12;;;;;;;22.46;44.47;96605.44;4455695;32;20104;-83
2023/10/26 09:50:14;;;;;;;7.65;1.45;;;;;;;23.78;41.47;96598.81;4459915;32;20107;-82
2023/10/26 09:52:42;;;;;;;1.37;1.00;;;;;;;23.13;44.06;96594.22;4462050;32;20452;-84
2023/10/26 09:55:11;;;;;;;2.28;0.90;;;;;;;22.33;45.15;96594.69;4461926;32;20093;-85
2023/10/26 09:57:44;;;;;;;1.42;0.73;;;;;;;22.73;44.80;96593.56;4466294;32;20107;-83
2023/10/26 10:00:13;;;;;;;5.05;1.30;;;;;;;23.73;42.19;96597.75;4458438;32;20081;-84
2023/10/26 10:02:41;;;;;;;1.37;1.00;;;;;;;23.83;42.75;96590.38;4459492;32;20061;-84
2023/10/26 10:05:38;;;;;;;4.03;1.00;;;;;;;23.75;42.54;96593.09;4464581;32;20075;-83
2023/10/26 10:08:06;;;;;;;2.05;0.93;;;;;;;23.25;43.91;96591.97;4461798;32;20061;-82
2023/10/26 10:10:34;;;;;;;2.65;1.00;;;;;;;23.31;42.56;96584.19;4507233;26;20104;-82
2023/10/26 10:13:04;;;;;;;3.05;1.02;;;;;;;22.79;43.09;96578.87;4480011;32;20490;-83
2023/10/26 10:15:39;;;;;;;2.60;1.02;;;;;;;23.20;42.55;96583.81;4472439;32;20101;-83
2023/10/26 10:18:10;;;;;;;2.60;1.00;;;;;;;23.25;42.68;96587.53;4472985;32;20085;-82
2023/10/26 10:20:40;;;;;;;3.08;0.80;;;;;;;23.37;42.05;96583.44;4472351;32;20080;-82
2023/10/26 10:23:08;;;;;;;2.05;1.00;;;;;;;23.58;41.81;96581.91;4472573;32;20115;-84
2023/10/26 10:25:50;;;;;;;3.15;1.37;;;;;;;23.00;43.20;96571.16;4472888;32;20089;-84
2023/10/26 10:28:23;;;;;;;5.07;1.55;;;;;;;24.05;42.28;96576.25;4472838;32;20159;-80
2023/10/26 10:31:00;;;;;;;3.28;1.42;;;;;;;23.75;42.51;96572.03;4460696;32;20599;-82
2023/10/26 10:33:28;;;;;;;4.78;1.80;;;;;;;23.91;41.41;96577.09;4473138;32;20156;-82
2023/10/26 10:36:03;;;;;;;4.50;1.67;;;;;;;23.06;43.93;96564.34;4472560;32;20146;-84
2023/10/26 10:38:33;;;;;;;4.62;1.40;;;;;;;22.85;44.41;96558.97;4473895;32;20089;-86
2023/10/26 10:41:00;;;;;;;3.80;1.30;;;;;;;22.92;44.13;96560.72;4472981;32;20081;-81
2023/10/26 10:43:44;;;;;;;2.67;1.00;;;;;;;23.24;43.39;96554.31;4472446;32;20097;-81
2023/10/26 10:46:23;;;;;;;3.17;1.10;;;;;;;24.16;41.60;96556.50;4472578;32;20105;-81
2023/10/26 10:48:58;;;;;;;2.58;1.08;;;;;;;22.54;43.13;96554.59;4458660;32;20131;-82
2023/10/26 10:51:41;;;;;;;2.85;1.05;;;;;;;23.48;42.49;96545.31;4472086;32;20107;-81
2023/10/26 10:54:11;;;;;;;1.92;0.90;;;;;;;23.23;41.74;96543.97;4472642;32;20232;-82
2023/10/26 10:56:58;;;;;;;3.85;0.93;;;;;;;23.37;41.73;96551.03;4472404;32;20149;-82
2023/10/26 10:59:26;;;;;;;1.00;0.80;;;;;;;22.87;41.33;96546.50;4472458;32;20080;-82
2023/10/26 11:02:12;;;;;;;1.77;0.82;;;;;;;22.89;41.80;96542.69;4472565;32;20541;-82
2023/10/26 11:04:58;;;;;;;3.92;1.20;;;;;;;23.32;38.61;96537.62;4472167;32;20537;-82
2023/10/26 11:07:43;;;;;;;3.97;1.08;;;;;;;23.33;39.02;96550.59;4460450;32;20154;-81
2023/10/26 11:10:10;;;;;;;2.67;0.85;;;;;;;23.26;39.00;96535.72;4472260;32;20164;-82
2023/10/26 11:12:37;;;;;;;2.45;0.80;;;;;;;23.78;39.83;96548.78;4471308;32;20097;-81
2023/10/26 11:15:06;;;;;;;3.65;0.90;;;;;;;22.86;41.26;96539.56;4472424;32;20446;-80
2023/10/26 11:17:34;;;;;;;0.90;0.80;;;;;;;23.25;39.38;96536.72;4472373;32;20134;-80
2023/10/26 11:20:01;;;;;;;2.15;0.80;;;;;;;23.60;38.28;96530.72;4457874;32;20410;-80
2023/10/26 11:22:30;;;;;;;1.58;0.80;;;;;;;23.84;37.84;96520.91;4472494;32;20099;-79
2023/10/26 11:24:58;;;;;;;3.60;0.70;;;;;;;23.53;38.46;96529.00;4472014;32;20097;-79
2023/10/26 11:27:25;;;;;;;1.83;0.80;;;;;;;22.86;38.94;96521.16;4472493;32;20157;-79
2023/10/26 11:30:04;;;;;;;0.85;0.80;;;;;;;22.40;39.49;96529.91;4472099;32;20106;-80
2023/10/26 11:32:32;;;;;;;2.62;1.05;;;;;;;22.09;40.78;96513.38;4458350;32;20150;-78
2023/10/26 11:35:06;;;;;;;0.88;0.60;;;;;;;22.50;39.13;96525.22;4472164;32;20104;-80
2023/10/26 11:37:47;;;;;;;1.25;0.70;;;;;;;21.73;40.49;96521.78;4472235;32;20379;-78
2023/10/26 11:40:16;;;;;;;2.35;0.90;;;;;;;21.20;41.77;96528.50;4472033;32;20493;-80